Time;durP1;ratioP1;P1;durP2;ratioP2;P2;SDS_P1;SDS_P2;PMS_P1;PMS_P2;Temp;Humidity;BMP_temperature;BMP_pressure;BME280_temperature;BME280_humidity;BME280_pressure;Samples;Min_cycle;Max_cycle;Signal;HPM_P1;HPM_P2
2020/12/13 00:01:12;;;;;;;36.63;25.23;;;5.90;84.90;;;;;;5072708;28;20024;-66
2020/12/13 00:03:38;;;;;;;34.78;24.67;;;6.00;84.80;;;;;;5080081;28;20040;-64
2020/12/13 00:06:03;;;;;;;36.15;24.20;;;6.00;84.70;;;;;;5078059;28;20124;-64
2020/12/13 00:08:29;;;;;;;32.85;23.70;;;6.00;84.60;;;;;;5070731;28;20041;-64
2020/12/13 00:10:56;;;;;;;35.53;24.90;;;6.10;85.20;;;;;;5071292;28;20077;-65
2020/12/13 00:13:23;;;;;;;32.85;23.23;;;6.00;84.70;;;;;;5063150;28;20024;-64
2020/12/13 00:15:48;;;;;;;33.00;24.27;;;6.00;84.90;;;;;;5066318;28;20034;-64
2020/12/13 00:18:14;;;;;;;31.50;23.70;;;6.00;84.90;;;;;;5072730;28;20120;-66
2020/12/13 00:20:39;;;;;;;35.30;24.13;;;6.10;84.60;;;;;;5068003;28;20090;-66
2020/12/13 00:23:05;;;;;;;35.80;24.80;;;6.10;84.50;;;;;;5072161;28;20582;-66
2020/12/13 00:25:30;;;;;;;35.42;23.35;;;6.10;84.20;;;;;;5068465;28;20398;-64
2020/12/13 00:27:56;;;;;;;32.25;23.50;;;6.10;84.70;;;;;;5068073;28;20090;-66
2020/12/13 00:30:22;;;;;;;34.25;23.85;;;6.00;84.80;;;;;;5070006;28;20040;-65
2020/12/13 00:32:47;;;;;;;34.55;23.48;;;6.00;84.90;;;;;;5072298;28;20055;-65
2020/12/13 00:35:14;;;;;;;33.15;23.90;;;6.10;84.60;;;;;;5066773;28;20028;-64
2020/12/13 00:37:40;;;;;;;33.33;23.00;;;6.10;84.30;;;;;;5063893;28;20128;-65
2020/12/13 00:40:05;;;;;;;33.20;23.60;;;6.10;84.20;;;;;;5073586;28;20068;-65
2020/12/13 00:42:31;;;;;;;33.75;23.75;;;6.10;84.80;;;;;;5070878;28;20054;-65
2020/12/13 00:44:56;;;;;;;36.33;24.48;;;6.00;85.10;;;;;;5054352;28;20052;-65
2020/12/13 00:47:22;;;;;;;34.33;24.58;;;6.00;85.20;;;;;;5051206;28;20029;-65
2020/12/13 00:49:48;;;;;;;35.55;24.00;;;6.00;85.00;;;;;;5066919;28;20063;-64
2020/12/13 00:52:13;;;;;;;34.05;24.13;;;5.90;85.40;;;;;;5068689;28;20048;-65
2020/12/13 00:54:39;;;;;;;33.53;23.70;;;6.00;85.10;;;;;;5070455;28;20089;-64
2020/12/13 00:57:04;;;;;;;31.95;22.98;;;6.00;85.20;;;;;;5067872;28;20135;-65
2020/12/13 00:59:30;;;;;;;39.20;25.75;;;6.00;85.20;;;;;;5063293;28;20036;-64
2020/12/13 01:01:55;;;;;;;34.40;23.80;;;6.00;85.30;;;;;;5070437;28;20033;-65
2020/12/13 01:04:21;;;;;;;34.13;25.30;;;6.00;85.00;;;;;;5058981;28;20053;-65
2020/12/13 01:06:47;;;;;;;34.63;22.52;;;6.00;85.10;;;;;;5063505;28;20035;-65
2020/12/13 01:09:12;;;;;;;33.35;22.88;;;6.10;84.90;;;;;;5063781;28;20040;-65
2020/12/13 01:11:38;;;;;;;33.25;23.33;;;6.00;85.10;;;;;;5064914;28;20047;-64
2020/12/13 01:14:04;;;;;;;35.35;24.27;;;5.90;85.60;;;;;;5066069;28;20072;-66
2020/12/13 01:16:30;;;;;;;34.03;24.17;;;6.00;85.40;;;;;;5071756;28;20120;-66
2020/12/13 01:18:57;;;;;;;32.33;23.48;;;5.90;85.60;;;;;;5070859;28;20063;-65
2020/12/13 01:21:25;;;;;;;33.05;23.77;;;6.00;85.50;;;;;;5078245;28;20036;-66
2020/12/13 01:23:54;;;;;;;36.13;24.70;;;5.90;85.40;;;;;;5072663;28;20033;-65
2020/12/13 01:26:22;;;;;;;34.95;24.88;;;5.90;85.50;;;;;;5070860;28;20032;-65
2020/12/13 01:28:48;;;;;;;36.55;24.38;;;6.00;85.30;;;;;;5071646;28;20029;-64
2020/12/13 01:31:19;;;;;;;35.08;23.58;;;5.90;85.60;;;;;;5071655;28;20050;-65
2020/12/13 01:33:45;;;;;;;30.48;22.30;;;5.90;85.70;;;;;;5067411;28;20032;-63
2020/12/13 01:36:12;;;;;;;35.17;23.75;;;5.90;85.50;;;;;;5070595;28;20032;-64
2020/12/13 01:38:38;;;;;;;33.17;23.10;;;5.90;85.90;;;;;;5070837;28;20029;-65
2020/12/13 01:41:03;;;;;;;35.58;25.00;;;5.90;85.50;;;;;;5070326;28;20490;-65
2020/12/13 01:43:29;;;;;;;32.45;23.48;;;6.00;85.30;;;;;;5070786;28;20103;-62
2020/12/13 01:45:55;;;;;;;35.50;25.20;;;6.00;85.50;;;;;;5069235;28;20055;-63
2020/12/13 01:48:21;;;;;;;36.35;24.70;;;6.00;85.40;;;;;;5068103;28;20037;-63
2020/12/13 01:53:25;;;;;;;36.75;24.48;;;6.00;85.30;;;;;;5069268;28;20107;-63
2020/12/13 01:55:55;;;;;;;31.02;23.35;;;6.00;85.10;;;;;;5070673;28;20037;-62
2020/12/13 01:58:27;;;;;;;34.42;24.80;;;6.10;84.90;;;;;;5068360;28;20028;-63
2020/12/13 02:00:55;;;;;;;32.80;24.13;;;6.00;84.90;;;;;;5070807;28;20029;-62
2020/12/13 02:03:23;;;;;;;33.38;24.00;;;5.90;85.40;;;;;;5069243;28;20044;-63
2020/12/13 02:06:00;;;;;;;32.25;23.90;;;5.90;85.40;;;;;;5070611;28;20024;-63
2020/12/13 02:08:39;;;;;;;33.28;24.42;;;6.10;85.00;;;;;;5067074;28;20075;-63
2020/12/13 02:11:05;;;;;;;33.85;24.77;;;6.00;84.90;;;;;;5067342;28;20115;-65
2020/12/13 02:13:31;;;;;;;38.17;25.60;;;6.10;84.90;;;;;;5069452;28;20037;-62
2020/12/13 02:15:57;;;;;;;37.05;24.85;;;6.00;85.20;;;;;;5069183;28;20036;-64
2020/12/13 02:18:23;;;;;;;35.95;25.00;;;6.00;85.20;;;;;;5070620;28;20507;-64
2020/12/13 02:20:48;;;;;;;35.90;25.40;;;6.10;84.50;;;;;;5070258;28;20047;-65
2020/12/13 02:23:14;;;;;;;33.58;23.33;;;6.00;85.20;;;;;;5070544;28;20127;-62
2020/12/13 02:25:40;;;;;;;34.63;24.75;;;6.10;84.90;;;;;;5071603;28;20572;-62
2020/12/13 02:28:06;;;;;;;37.83;24.98;;;6.10;85.00;;;;;;5076379;28;20020;-62
2020/12/13 02:30:31;;;;;;;37.08;25.90;;;6.20;84.40;;;;;;5074460;28;20394;-64
2020/12/13 02:32:58;;;;;;;35.72;25.50;;;6.20;84.10;;;;;;5073710;28;20036;-65
2020/12/13 02:35:24;;;;;;;34.88;24.83;;;6.30;83.90;;;;;;5074281;28;20044;-62
2020/12/13 02:37:49;;;;;;;32.63;23.70;;;6.20;84.50;;;;;;5074888;28;20094;-64
2020/12/13 02:40:16;;;;;;;35.53;25.35;;;6.20;84.60;;;;;;5072389;28;20067;-62
2020/12/13 02:42:41;;;;;;;35.30;24.85;;;6.20;84.50;;;;;;5058894;28;20379;-61
2020/12/13 02:45:07;;;;;;;38.95;27.23;;;6.20;84.30;;;;;;5072800;28;20040;-62
2020/12/13 02:47:33;;;;;;;38.67;26.95;;;6.00;85.40;;;;;;5076315;28;20040;-64
2020/12/13 02:49:59;;;;;;;40.28;25.92;;;5.90;85.40;;;;;;5075524;28;20115;-62
2020/12/13 02:52:24;;;;;;;39.00;26.27;;;5.90;85.50;;;;;;5073267;28;20063;-62
2020/12/13 02:54:50;;;;;;;42.20;27.40;;;5.70;86.70;;;;;;5074044;28;20032;-62
2020/12/13 02:57:15;;;;;;;37.92;24.98;;;5.80;86.50;;;;;;5075261;28;20537;-62
2020/12/13 02:59:41;;;;;;;42.22;27.52;;;5.90;86.30;;;;;;5076821;28;20406;-62
2020/12/13 03:02:06;;;;;;;37.75;26.63;;;5.90;86.60;;;;;;5080432;28;20124;-63
2020/12/13 03:04:32;;;;;;;38.90;26.10;;;5.80;85.90;;;;;;5077537;28;20052;-64
2020/12/13 03:06:57;;;;;;;38.78;26.63;;;5.80;85.90;;;;;;5074761;28;20040;-64
2020/12/13 03:09:23;;;;;;;38.50;26.30;;;5.90;86.00;;;;;;5075486;28;20051;-62
2020/12/13 03:11:48;;;;;;;38.35;26.13;;;5.90;85.90;;;;;;5075037;28;20067;-62
2020/12/13 03:14:14;;;;;;;36.95;24.90;;;5.90;85.60;;;;;;5074478;28;20044;-63
2020/12/13 03:16:39;;;;;;;36.92;26.35;;;6.00;85.70;;;;;;5073246;28;20045;-64
2020/12/13 03:19:05;;;;;;;36.58;25.55;;;5.90;85.60;;;;;;5073862;28;20067;-63
2020/12/13 03:21:31;;;;;;;36.92;25.08;;;6.10;85.10;;;;;;5072816;28;20037;-62
2020/12/13 03:23:59;;;;;;;38.38;26.20;;;6.00;85.50;;;;;;5072490;28;20041;-65
2020/12/13 03:26:24;;;;;;;36.80;26.77;;;5.90;86.10;;;;;;5075779;28;20020;-64
2020/12/13 03:28:51;;;;;;;37.17;24.67;;;5.90;85.90;;;;;;5074065;28;20031;-64
2020/12/13 03:31:16;;;;;;;38.63;26.10;;;6.00;85.30;;;;;;5074969;28;20166;-65
2020/12/13 03:33:42;;;;;;;40.67;25.35;;;6.10;84.90;;;;;;5074013;28;20123;-65
2020/12/13 03:36:08;;;;;;;40.70;27.13;;;6.10;84.50;;;;;;5074488;28;20037;-64
2020/12/13 03:38:33;;;;;;;40.08;26.13;;;6.00;85.00;;;;;;5072960;28;20041;-64
2020/12/13 03:40:59;;;;;;;41.03;26.83;;;6.00;85.30;;;;;;5074039;28;20043;-65
2020/12/13 03:43:24;;;;;;;41.65;27.08;;;6.10;84.80;;;;;;5074077;28;20111;-63
2020/12/13 03:45:50;;;;;;;40.45;26.98;;;6.10;85.00;;;;;;5073434;28;20082;-64
2020/12/13 03:48:15;;;;;;;36.83;24.98;;;6.10;84.70;;;;;;5083933;28;20069;-63
2020/12/13 03:50:41;;;;;;;39.30;25.58;;;6.20;84.40;;;;;;5083276;28;20380;-63
2020/12/13 03:53:12;;;;;;;36.20;25.58;;;6.10;84.40;;;;;;5073914;28;20458;-65
2020/12/13 03:55:39;;;;;;;35.35;25.42;;;6.10;84.70;;;;;;5073791;28;20033;-64
2020/12/13 03:58:05;;;;;;;39.40;25.20;;;6.10;84.70;;;;;;5074115;28;20115;-63
2020/12/13 04:00:31;;;;;;;41.13;25.98;;;6.00;85.70;;;;;;5073509;28;20025;-64
2020/12/13 04:02:59;;;;;;;38.90;26.90;;;5.90;85.70;;;;;;5073891;28;20502;-65
2020/12/13 04:05:25;;;;;;;38.58;26.55;;;5.80;85.90;;;;;;5073002;28;20028;-64
2020/12/13 04:07:52;;;;;;;38.15;26.35;;;5.80;86.20;;;;;;5073704;28;20538;-65
2020/12/13 04:10:18;;;;;;;37.13;24.42;;;5.90;85.90;;;;;;5073695;28;20032;-64
2020/12/13 04:12:44;;;;;;;39.30;25.67;;;5.90;85.70;;;;;;5073510;28;20028;-65
2020/12/13 04:15:10;;;;;;;37.85;26.42;;;6.00;85.60;;;;;;5073385;28;20040;-65
2020/12/13 04:17:36;;;;;;;40.75;26.80;;;6.00;85.20;;;;;;5073384;28;20036;-65
2020/12/13 04:20:02;;;;;;;37.13;26.27;;;6.10;85.20;;;;;;5073570;28;20032;-65
2020/12/13 04:22:28;;;;;;;39.92;26.98;;;6.10;85.00;;;;;;5073150;28;20044;-65
2020/12/13 04:24:53;;;;;;;36.85;25.35;;;6.10;84.90;;;;;;5073289;28;20032;-64
2020/12/13 04:27:19;;;;;;;40.47;27.75;;;6.20;84.40;;;;;;5073854;28;20090;-64
2020/12/13 04:29:45;;;;;;;42.80;27.98;;;6.20;84.50;;;;;;5073227;28;20103;-64
2020/12/13 04:32:10;;;;;;;37.63;25.98;;;6.20;84.70;;;;;;5071777;28;20040;-66
2020/12/13 04:34:36;;;;;;;40.75;26.52;;;6.10;84.50;;;;;;5073150;28;20024;-63
2020/12/13 04:37:02;;;;;;;35.33;25.20;;;6.10;84.60;;;;;;5072856;28;20124;-64
2020/12/13 04:39:28;;;;;;;40.00;26.80;;;6.20;84.20;;;;;;5072607;28;20107;-63
2020/12/13 04:41:54;;;;;;;42.25;28.00;;;6.10;84.80;;;;;;5071803;28;20086;-65
2020/12/13 04:44:19;;;;;;;40.17;27.25;;;6.10;84.80;;;;;;5071729;28;20033;-64
2020/12/13 04:46:46;;;;;;;37.92;26.02;;;6.10;84.90;;;;;;5073973;28;20115;-64
2020/12/13 04:49:12;;;;;;;36.08;26.02;;;6.20;84.70;;;;;;5086775;28;20499;-64
2020/12/13 04:51:41;;;;;;;38.53;26.88;;;6.10;84.90;;;;;;5064023;28;20493;-65
2020/12/13 04:54:07;;;;;;;37.60;26.38;;;6.00;85.10;;;;;;5076130;28;20037;-65
2020/12/13 04:56:35;;;;;;;41.38;26.77;;;6.00;85.10;;;;;;5068416;28;20116;-64
2020/12/13 04:59:04;;;;;;;40.70;27.38;;;6.00;85.40;;;;;;5069248;28;20390;-65
2020/12/13 05:01:31;;;;;;;40.20;27.77;;;5.90;85.60;;;;;;5072945;28;20068;-65
2020/12/13 05:03:56;;;;;;;36.90;25.77;;;5.90;85.60;;;;;;5072218;28;20082;-63
2020/12/13 05:06:22;;;;;;;42.42;27.15;;;5.90;85.90;;;;;;5072547;28;20036;-65
2020/12/13 05:08:48;;;;;;;36.78;24.52;;;5.80;85.80;;;;;;5073438;28;20123;-65
2020/12/13 05:11:17;;;;;;;38.10;25.88;;;6.00;85.70;;;;;;5071591;28;20495;-65
2020/12/13 05:13:42;;;;;;;36.65;25.08;;;6.00;85.50;;;;;;5072048;28;20155;-65
2020/12/13 05:16:10;;;;;;;38.67;26.02;;;6.00;85.40;;;;;;5072355;28;20131;-65
2020/12/13 05:18:42;;;;;;;37.88;25.92;;;6.00;85.10;;;;;;5071409;28;20468;-65
2020/12/13 05:21:08;;;;;;;34.92;24.52;;;6.10;85.00;;;;;;5072161;28;20105;-65
2020/12/13 05:23:34;;;;;;;32.58;23.27;;;6.10;84.80;;;;;;5072465;28;20123;-65
2020/12/13 05:25:59;;;;;;;38.63;27.25;;;6.10;84.90;;;;;;5072063;28;20040;-64
2020/12/13 05:28:25;;;;;;;38.95;26.38;;;6.00;85.00;;;;;;5075659;28;20128;-65
2020/12/13 05:30:53;;;;;;;42.72;26.63;;;6.10;84.90;;;;;;5076726;28;20123;-65
2020/12/13 05:35:47;;;;;;;37.40;25.45;;;6.20;84.10;;;;;;5082294;28;20079;-64
2020/12/13 05:38:14;;;;;;;37.95;27.20;;;6.10;84.50;;;;;;5077381;28;20044;-65
2020/12/13 05:40:41;;;;;;;39.83;27.58;;;6.10;84.70;;;;;;5073435;28;20039;-64
2020/12/13 05:43:18;;;;;;;36.15;25.67;;;6.00;85.10;;;;;;5071537;28;20070;-65
2020/12/13 05:48:59;;;;;;;36.85;26.42;;;6.00;85.40;;;;;;5044342;28;20036;-64
2020/12/13 05:51:38;;;;;;;37.65;26.35;;;6.00;85.30;;;;;;5072269;28;20043;-64
2020/12/13 05:54:10;;;;;;;37.65;26.55;;;6.00;85.40;;;;;;5071388;28;20502;-64
2020/12/13 05:56:37;;;;;;;36.22;26.10;;;6.00;85.40;;;;;;5070748;28;20036;-64
2020/12/13 05:59:03;;;;;;;39.38;26.63;;;6.00;85.10;;;;;;5072354;28;20071;-63
2020/12/13 06:01:30;;;;;;;39.30;26.52;;;6.00;85.20;;;;;;5071467;28;20064;-64
2020/12/13 06:04:00;;;;;;;38.53;26.70;;;6.10;85.10;;;;;;5074716;28;20068;-65
2020/12/13 06:06:26;;;;;;;43.80;26.30;;;6.00;85.50;;;;;;5075634;28;20033;-64
2020/12/13 06:09:18;;;;;;;42.40;27.45;;;5.90;85.70;;;;;;5056029;28;20033;-64
2020/12/13 06:11:49;;;;;;;38.83;25.65;;;5.90;85.60;;;;;;5063427;28;20044;-64
2020/12/13 06:14:20;;;;;;;38.40;26.10;;;5.90;85.90;;;;;;5077184;28;20097;-66
2020/12/13 06:16:47;;;;;;;35.50;24.95;;;5.90;85.80;;;;;;5080083;28;20039;-64
2020/12/13 06:19:16;;;;;;;38.90;27.63;;;5.90;85.90;;;;;;5081899;28;20131;-66
2020/12/13 06:21:43;;;;;;;43.35;28.48;;;6.00;85.70;;;;;;5081367;28;20044;-64
2020/12/13 06:24:08;;;;;;;45.45;30.52;;;6.00;85.90;;;;;;5065371;28;20101;-64
2020/12/13 06:26:35;;;;;;;43.80;28.90;;;6.10;85.70;;;;;;5083591;28;20036;-64
2020/12/13 06:29:02;;;;;;;43.95;29.98;;;6.10;85.50;;;;;;5083285;28;20032;-64
2020/12/13 06:31:29;;;;;;;39.03;25.92;;;6.10;85.40;;;;;;5079477;28;20043;-64
2020/12/13 06:33:54;;;;;;;43.05;28.92;;;6.20;85.20;;;;;;5075602;28;20124;-65
2020/12/13 06:36:25;;;;;;;43.22;27.75;;;6.00;85.60;;;;;;5075590;28;20600;-64
2020/12/13 06:38:53;;;;;;;46.78;29.30;;;6.00;86.20;;;;;;5075649;28;20395;-64
2020/12/13 06:41:31;;;;;;;43.83;29.23;;;6.10;85.90;;;;;;5079274;28;20033;-65
2020/12/13 06:44:05;;;;;;;46.30;28.05;;;6.00;86.10;;;;;;5077969;28;20041;-64
2020/12/13 06:46:31;;;;;;;44.13;29.13;;;6.00;86.30;;;;;;5076683;28;20036;-65
2020/12/13 06:48:58;;;;;;;45.65;28.75;;;6.00;86.20;;;;;;5090843;28;20070;-64
2020/12/13 06:51:34;;;;;;;43.65;29.23;;;6.10;85.80;;;;;;5079379;28;20044;-64
2020/12/13 06:54:00;;;;;;;43.65;29.58;;;6.10;85.80;;;;;;5075125;28;20036;-65
2020/12/13 06:56:26;;;;;;;49.63;29.33;;;6.30;85.00;;;;;;5075698;28;20039;-64
2020/12/13 06:59:00;;;;;;;44.38;29.30;;;6.20;85.70;;;;;;5075576;28;20119;-65
2020/12/13 07:01:36;;;;;;;44.28;29.40;;;6.30;85.00;;;;;;5073860;28;20448;-64
2020/12/13 07:04:36;;;;;;;45.42;28.40;;;6.20;86.10;;;;;;5075198;28;20430;-65
2020/12/13 07:09:30;;;;;;;44.72;29.17;;;6.20;85.80;;;;;;5075059;28;20035;-64
2020/12/13 07:11:57;;;;;;;49.28;30.40;;;6.20;85.90;;;;;;5074555;28;20032;-64
2020/12/13 07:14:26;;;;;;;49.97;31.08;;;6.10;86.20;;;;;;5073888;28;20060;-65
2020/12/13 07:19:35;;;;;;;49.17;31.25;;;6.20;86.00;;;;;;5075130;28;20025;-65
2020/12/13 07:22:10;;;;;;;52.97;32.00;;;6.20;86.00;;;;;;5074418;28;20040;-63
2020/12/13 07:24:36;;;;;;;48.08;31.45;;;6.30;85.70;;;;;;5074750;28;20071;-64
2020/12/13 07:27:03;;;;;;;46.65;30.42;;;6.20;85.80;;;;;;5074441;28;20071;-64
2020/12/13 07:29:31;;;;;;;52.58;34.33;;;6.20;85.80;;;;;;5074580;28;20368;-65
2020/12/13 07:31:57;;;;;;;49.35;32.25;;;6.30;85.80;;;;;;5074510;28;20032;-66
2020/12/13 07:34:23;;;;;;;53.90;33.30;;;6.40;85.70;;;;;;5074309;28;20036;-65
2020/12/13 07:36:49;;;;;;;48.92;31.27;;;6.30;85.70;;;;;;5074456;28;20032;-63
2020/12/13 07:39:15;;;;;;;54.20;34.22;;;6.30;85.90;;;;;;5074746;28;20391;-62
2020/12/13 07:41:42;;;;;;;54.55;34.10;;;6.20;86.30;;;;;;5074099;28;20043;-63
2020/12/13 07:44:08;;;;;;;53.50;31.08;;;6.30;86.30;;;;;;5074430;28;20028;-62
2020/12/13 07:46:35;;;;;;;54.10;32.03;;;6.20;86.40;;;;;;5074559;28;20028;-65
2020/12/13 07:49:20;;;;;;;55.17;32.60;;;6.30;86.10;;;;;;5088874;28;20074;-66
2020/12/13 07:51:56;;;;;;;52.63;32.80;;;6.10;86.90;;;;;;5074310;28;20028;-62
2020/12/13 07:54:28;;;;;;;52.90;32.33;;;6.00;87.30;;;;;;5074913;28;20600;-61
2020/12/13 07:56:59;;;;;;;47.47;30.98;;;6.00;87.30;;;;;;5073826;28;20055;-62
2020/12/13 07:59:26;;;;;;;56.05;33.47;;;6.10;87.20;;;;;;5075424;28;20036;-65
2020/12/13 08:01:56;;;;;;;49.88;32.00;;;6.20;86.70;;;;;;5075042;28;20068;-62
2020/12/13 08:04:29;;;;;;;54.30;34.05;;;6.30;86.40;;;;;;5074645;28;20071;-63
2020/12/13 08:06:59;;;;;;;50.00;31.80;;;6.30;86.40;;;;;;5055677;28;20048;-65
2020/12/13 08:09:25;;;;;;;63.15;39.60;;;6.40;86.60;;;;;;5076559;28;20028;-63
2020/12/13 08:11:51;;;;;;;65.20;40.40;;;6.40;86.00;;;;;;5074303;28;20082;-62
2020/12/13 08:14:21;;;;;;;53.88;34.83;;;6.40;85.90;;;;;;5074421;28;20051;-61
2020/12/13 08:16:50;;;;;;;52.78;33.13;;;6.50;85.70;;;;;;5073831;28;20047;-63
2020/12/13 08:19:18;;;;;;;52.67;32.90;;;6.50;85.70;;;;;;5073696;28;20047;-63
2020/12/13 08:22:08;;;;;;;54.60;34.97;;;6.40;86.10;;;;;;5073901;28;20097;-64
2020/12/13 08:24:34;;;;;;;62.30;36.60;;;6.40;86.10;;;;;;5073451;28;20029;-63
2020/12/13 08:27:01;;;;;;;51.25;33.10;;;6.50;85.60;;;;;;5073622;28;20502;-62
2020/12/13 08:29:28;;;;;;;50.40;32.85;;;6.40;85.90;;;;;;5073846;28;20437;-62
2020/12/13 08:31:57;;;;;;;57.55;34.97;;;6.30;86.30;;;;;;5072924;28;20085;-63
2020/12/13 08:34:29;;;;;;;49.75;31.48;;;6.30;86.50;;;;;;5073235;28;20142;-62
2020/12/13 08:36:58;;;;;;;54.17;34.15;;;6.40;86.20;;;;;;5073701;28;20513;-61
2020/12/13 08:39:30;;;;;;;52.60;32.70;;;6.50;85.90;;;;;;5073253;28;20466;-65
2020/12/13 08:42:00;;;;;;;53.80;32.47;;;6.40;86.70;;;;;;5072970;28;20559;-64
2020/12/13 08:44:30;;;;;;;48.88;30.42;;;6.30;86.20;;;;;;5071917;28;20535;-64
2020/12/13 08:46:59;;;;;;;50.03;31.52;;;6.40;86.00;;;;;;5074191;28;20040;-64
2020/12/13 08:49:35;;;;;;;52.47;30.42;;;6.40;85.70;;;;;;5078991;28;20118;-64
2020/12/13 08:52:13;;;;;;;46.10;29.38;;;6.30;86.40;;;;;;5074086;28;20036;-62
2020/12/13 08:54:49;;;;;;;47.72;29.83;;;6.30;86.30;;;;;;5072967;28;20142;-62
2020/12/13 08:57:27;;;;;;;45.63;30.98;;;6.30;86.40;;;;;;5073244;28;20029;-62
2020/12/13 09:00:10;;;;;;;43.58;28.08;;;6.40;85.90;;;;;;5073283;28;20048;-62
2020/12/13 09:02:37;;;;;;;47.97;29.33;;;6.50;85.70;;;;;;5072502;28;20040;-65
2020/12/13 09:05:07;;;;;;;56.03;36.28;;;6.40;85.90;;;;;;5072677;28;20036;-63
2020/12/13 09:07:33;;;;;;;49.80;32.28;;;6.50;85.70;;;;;;5072768;28;20021;-63
2020/12/13 09:10:08;;;;;;;46.58;29.58;;;6.50;85.70;;;;;;5073057;28;20047;-63
2020/12/13 09:12:35;;;;;;;49.92;31.40;;;6.50;85.30;;;;;;5072716;28;20032;-62
2020/12/13 09:15:18;;;;;;;48.13;31.52;;;6.50;85.40;;;;;;5072903;28;20553;-63
2020/12/13 09:18:02;;;;;;;43.55;27.77;;;6.60;84.90;;;;;;5072542;28;20024;-63
2020/12/13 09:20:38;;;;;;;37.67;27.10;;;6.60;85.30;;;;;;5072701;28;20036;-63
2020/12/13 09:23:12;;;;;;;44.10;28.52;;;6.60;84.80;;;;;;5071967;28;20048;-63
2020/12/13 09:25:38;;;;;;;43.42;29.13;;;6.60;85.30;;;;;;5072896;28;20051;-64
2020/12/13 09:28:05;;;;;;;43.25;29.60;;;6.50;86.00;;;;;;5072998;28;20514;-64
2020/12/13 09:30:31;;;;;;;45.40;30.20;;;6.40;86.50;;;;;;5072671;28;20101;-63
2020/12/13 09:32:57;;;;;;;45.90;29.17;;;6.50;86.10;;;;;;5071909;28;20388;-64
2020/12/13 09:35:22;;;;;;;43.08;28.17;;;6.50;85.80;;;;;;5071878;28;20036;-64
2020/12/13 09:37:48;;;;;;;38.50;27.80;;;6.50;86.10;;;;;;5072544;28;20444;-64
2020/12/13 09:40:14;;;;;;;39.03;27.55;;;6.70;85.40;;;;;;5072499;28;20041;-64
2020/12/13 09:42:39;;;;;;;43.63;27.83;;;6.70;85.20;;;;;;5072150;28;20143;-64
2020/12/13 09:45:05;;;;;;;45.88;30.67;;;6.70;85.10;;;;;;5071773;28;20037;-63
2020/12/13 09:47:31;;;;;;;42.83;29.05;;;6.80;85.20;;;;;;5075588;28;20020;-64
2020/12/13 09:49:58;;;;;;;41.72;27.30;;;6.80;85.00;;;;;;5083870;28;20094;-66
2020/12/13 09:52:25;;;;;;;42.78;28.25;;;6.80;85.10;;;;;;5072525;28;20070;-65
2020/12/13 09:54:51;;;;;;;43.95;29.77;;;6.70;85.30;;;;;;5070599;28;20495;-64
2020/12/13 09:57:17;;;;;;;43.60;28.80;;;6.80;84.80;;;;;;5072596;28;20097;-65
2020/12/13 09:59:42;;;;;;;43.88;29.05;;;6.80;84.90;;;;;;5072278;28;20407;-66
2020/12/13 10:02:08;;;;;;;42.53;28.35;;;6.80;85.10;;;;;;5071622;28;20119;-65
2020/12/13 10:04:34;;;;;;;43.75;29.25;;;6.80;84.80;;;;;;5071908;28;20071;-65
2020/12/13 10:09:34;;;;;;;41.75;28.85;;;6.80;85.40;;;;;;5074151;28;20036;-65
2020/12/13 10:12:00;;;;;;;44.17;28.20;;;6.80;85.10;;;;;;5072928;28;20387;-64
2020/12/13 10:14:25;;;;;;;42.72;27.63;;;6.80;85.40;;;;;;5071871;28;20071;-64
2020/12/13 10:16:52;;;;;;;42.28;28.27;;;6.90;85.90;;;;;;5071532;28;20496;-65
2020/12/13 10:19:17;;;;;;;74.53;48.92;;;6.90;85.10;;;;;;5071634;28;20040;-64
2020/12/13 10:21:44;;;;;;;43.28;28.77;;;6.90;85.10;;;;;;5071644;28;20040;-65
2020/12/13 10:24:10;;;;;;;41.00;26.33;;;7.00;84.60;;;;;;5070995;28;20135;-64
2020/12/13 10:26:38;;;;;;;42.55;26.85;;;7.10;84.30;;;;;;5070477;28;20068;-64
2020/12/13 10:29:05;;;;;;;41.88;26.80;;;7.10;84.20;;;;;;5070918;28;20037;-64
2020/12/13 10:31:46;;;;;;;39.42;28.35;;;7.10;84.10;;;;;;5076688;28;20083;-63
2020/12/13 10:34:12;;;;;;;37.55;25.05;;;7.20;84.10;;;;;;5074524;28;20038;-65
2020/12/13 10:36:39;;;;;;;39.97;25.67;;;7.30;84.70;;;;;;5074048;28;20465;-64
2020/12/13 10:39:06;;;;;;;41.78;28.42;;;7.30;84.10;;;;;;5073027;28;20032;-64
2020/12/13 10:41:33;;;;;;;39.85;26.15;;;7.20;83.90;;;;;;5075161;28;20060;-66
2020/12/13 10:43:59;;;;;;;41.67;27.27;;;7.20;84.70;;;;;;5082117;28;20029;-66
2020/12/13 10:46:25;;;;;;;37.88;24.85;;;7.20;85.50;;;;;;5083208;28;20028;-65
2020/12/13 10:48:50;;;;;;;39.40;27.42;;;7.40;84.80;;;;;;5101499;28;20035;-67
2020/12/13 10:51:18;;;;;;;39.30;26.35;;;7.50;83.70;;;;;;5084816;28;20051;-65
2020/12/13 10:53:45;;;;;;;40.83;26.05;;;7.50;83.30;;;;;;5075600;28;20037;-65
2020/12/13 10:56:11;;;;;;;41.75;26.55;;;7.50;83.60;;;;;;5057955;28;20094;-64
2020/12/13 10:58:39;;;;;;;40.88;27.65;;;7.50;83.60;;;;;;5075363;28;20582;-63
2020/12/13 11:01:06;;;;;;;42.25;26.88;;;7.50;83.50;;;;;;5074660;28;20410;-65
2020/12/13 11:03:32;;;;;;;42.47;27.00;;;7.50;83.80;;;;;;5075635;28;20028;-65
2020/12/13 11:05:57;;;;;;;39.65;26.98;;;7.50;84.00;;;;;;5074937;28;20040;-64
2020/12/13 11:08:23;;;;;;;43.63;27.83;;;7.50;84.00;;;;;;5074974;28;20102;-65
2020/12/13 11:10:49;;;;;;;42.92;27.92;;;7.30;84.60;;;;;;5073407;28;20032;-66
2020/12/13 11:13:15;;;;;;;41.30;26.48;;;7.30;84.90;;;;;;5074420;28;20032;-66
2020/12/13 11:15:45;;;;;;;40.15;28.02;;;7.40;84.80;;;;;;5075267;28;20518;-66
2020/12/13 11:18:11;;;;;;;41.05;25.98;;;7.30;85.30;;;;;;5075570;28;20025;-66
2020/12/13 11:20:37;;;;;;;43.53;27.55;;;7.30;85.00;;;;;;5075121;28;20482;-67
2020/12/13 11:23:03;;;;;;;41.65;26.13;;;7.40;85.10;;;;;;5074778;28;20071;-68
2020/12/13 11:25:28;;;;;;;41.85;26.83;;;7.40;85.10;;;;;;5074585;28;20041;-66
2020/12/13 11:27:54;;;;;;;43.05;29.15;;;7.40;84.80;;;;;;5074960;28;20032;-66
2020/12/13 11:30:20;;;;;;;40.15;27.23;;;7.40;85.40;;;;;;5074433;28;20033;-64
2020/12/13 11:32:45;;;;;;;39.65;27.40;;;7.40;85.30;;;;;;5075529;28;20025;-68
2020/12/13 11:35:13;;;;;;;39.45;26.10;;;7.40;85.40;;;;;;5075287;28;20599;-65
2020/12/13 11:37:39;;;;;;;41.53;25.83;;;7.40;85.10;;;;;;5075100;28;20056;-63
2020/12/13 11:40:08;;;;;;;42.47;27.35;;;7.50;85.10;;;;;;5074419;28;20030;-65
2020/12/13 11:42:35;;;;;;;36.42;26.13;;;7.40;85.30;;;;;;5074334;28;20114;-65
2020/12/13 11:45:04;;;;;;;40.35;27.75;;;7.40;85.50;;;;;;5072988;28;20441;-66
2020/12/13 11:47:30;;;;;;;41.40;25.58;;;7.50;85.20;;;;;;5078309;28;20042;-64
2020/12/13 11:49:56;;;;;;;40.60;26.25;;;7.50;85.30;;;;;;5093902;28;20553;-65
2020/12/13 11:52:21;;;;;;;42.83;26.45;;;7.50;85.70;;;;;;5078687;28;20044;-66
2020/12/13 11:54:47;;;;;;;39.88;27.30;;;7.50;85.60;;;;;;5073728;28;20036;-65
2020/12/13 11:57:13;;;;;;;40.55;26.75;;;7.60;85.50;;;;;;5056044;28;20048;-65
2020/12/13 11:59:39;;;;;;;36.47;24.08;;;7.60;85.10;;;;;;5071778;28;20059;-66
2020/12/13 12:02:05;;;;;;;43.65;27.75;;;7.60;85.20;;;;;;5071535;28;20036;-65
2020/12/13 12:04:30;;;;;;;41.75;27.40;;;7.80;84.90;;;;;;5051775;28;20037;-65
2020/12/13 12:07:01;;;;;;;36.72;25.70;;;7.80;84.70;;;;;;5072660;28;20078;-64
2020/12/13 12:09:28;;;;;;;37.67;26.02;;;7.70;85.30;;;;;;5084050;28;20037;-65
2020/12/13 12:11:54;;;;;;;39.28;26.63;;;7.70;85.20;;;;;;5076141;28;20044;-64
2020/12/13 12:14:19;;;;;;;39.08;26.25;;;7.80;84.80;;;;;;5081082;28;20143;-65
2020/12/13 12:16:45;;;;;;;35.80;24.75;;;7.90;84.50;;;;;;5084936;28;20036;-65
2020/12/13 12:19:11;;;;;;;42.45;26.02;;;7.90;84.80;;;;;;5084073;28;20037;-64
2020/12/13 12:21:50;;;;;;;38.05;26.80;;;7.90;84.60;;;;;;5082415;28;20054;-66
2020/12/13 12:24:20;;;;;;;40.90;27.33;;;7.80;85.00;;;;;;5077030;28;20029;-66
2020/12/13 12:26:45;;;;;;;41.25;26.35;;;7.80;85.30;;;;;;5074863;28;20036;-64
2020/12/13 12:29:11;;;;;;;42.63;26.90;;;8.00;84.80;;;;;;5074174;28;20029;-64
2020/12/13 12:31:37;;;;;;;37.85;27.08;;;7.90;85.10;;;;;;5073094;28;20040;-66
2020/12/13 12:34:03;;;;;;;42.30;27.70;;;8.00;84.90;;;;;;5074051;28;20048;-65
2020/12/13 12:36:31;;;;;;;41.45;27.65;;;7.90;85.30;;;;;;5073470;28;20036;-65
2020/12/13 12:38:58;;;;;;;40.08;26.08;;;7.90;85.90;;;;;;5072943;28;20044;-66
2020/12/13 12:41:23;;;;;;;40.33;25.85;;;8.00;85.30;;;;;;5073586;28;20515;-64
2020/12/13 12:43:50;;;;;;;39.95;26.77;;;8.00;85.20;;;;;;5073039;28;20043;-63
2020/12/13 12:46:19;;;;;;;43.22;27.48;;;7.80;86.00;;;;;;5072746;28;20074;-66
2020/12/13 12:48:48;;;;;;;40.80;27.05;;;7.80;86.80;;;;;;5078979;28;20062;-62
2020/12/13 12:51:16;;;;;;;42.00;27.85;;;8.00;85.90;;;;;;5073107;28;20036;-64
2020/12/13 12:53:42;;;;;;;49.38;30.20;;;8.00;85.60;;;;;;5073557;28;20124;-63